createdAt,value
2018-04-30T09:29:39.536Z,79.84
2018-04-30T09:32:07.715Z,79.85
2018-04-30T09:34:35.934Z,79.93
2018-04-30T09:37:04.100Z,79.97
2018-04-30T09:39:32.462Z,80.61
2018-04-30T09:42:00.816Z,81.65
2018-04-30T09:44:29.095Z,80.89
2018-04-30T09:46:57.282Z,80.46
2018-04-30T09:49:28.832Z,80.31
2018-04-30T09:52:46.445Z,79.68
2018-04-30T09:55:13.188Z,80.28
2018-04-30T09:57:41.380Z,80.63
2018-04-30T10:00:09.848Z,79.57
2018-04-30T10:02:38.041Z,79.89
2018-04-30T10:05:06.189Z,79.54
2018-04-30T10:07:34.376Z,79.35
2018-04-30T10:10:02.848Z,79.60
2018-04-30T10:12:31.023Z,79.60
2018-04-30T10:14:59.590Z,79.81
2018-04-30T10:17:27.773Z,79.81
2018-04-30T10:19:55.989Z,79.72
2018-04-30T10:22:24.198Z,79.68
2018-04-30T10:24:52.344Z,79.43
2018-04-30T10:27:20.561Z,79.10
2018-04-30T10:29:48.838Z,79.68
2018-04-30T10:32:17.226Z,80.06
2018-04-30T10:34:48.948Z,79.42
2018-04-30T10:37:17.006Z,79.38
2018-04-30T10:39:45.169Z,79.25
2018-04-30T10:42:13.402Z,78.99
2018-04-30T10:44:41.736Z,78.49
2018-04-30T10:47:09.902Z,78.49
2018-04-30T10:49:38.108Z,77.60
2018-04-30T10:52:06.274Z,78.26
2018-04-30T10:54:34.458Z,78.19
2018-04-30T10:57:03.786Z,77.88
2018-04-30T10:59:32.151Z,77.57
2018-04-30T11:02:00.344Z,77.34
2018-04-30T11:04:28.515Z,77.41
2018-04-30T11:06:56.704Z,77.82
2018-04-30T11:09:24.879Z,77.00
2018-04-30T11:11:53.085Z,76.87
2018-04-30T11:14:21.442Z,77.18
2018-04-30T11:16:49.604Z,76.51
2018-04-30T11:19:17.788Z,76.75
2018-04-30T11:21:46.318Z,77.10
2018-04-30T11:24:14.481Z,77.04
2018-04-30T11:26:42.753Z,76.70
2018-04-30T11:29:11.230Z,76.89
2018-04-30T11:31:39.425Z,77.40
2018-04-30T11:34:07.881Z,76.39
2018-04-30T11:36:36.085Z,76.31
2018-04-30T11:39:05.657Z,75.55
2018-04-30T11:41:33.849Z,75.16
2018-04-30T11:44:02.040Z,74.33
2018-04-30T11:46:30.316Z,74.58
2018-04-30T11:48:58.468Z,73.15
2018-04-30T11:51:27.077Z,72.38
2018-04-30T11:53:55.607Z,72.07
2018-04-30T11:56:23.790Z,70.51
2018-04-30T11:58:52.358Z,71.29
2018-04-30T12:01:20.658Z,69.52
2018-04-30T12:03:48.795Z,68.46
2018-04-30T12:06:16.982Z,69.96
2018-04-30T12:08:45.153Z,69.54
2018-04-30T12:11:13.702Z,69.46
2018-04-30T12:13:41.899Z,69.67
2018-04-30T12:16:10.360Z,70.45
2018-04-30T12:18:38.685Z,69.12
2018-04-30T12:21:06.789Z,70.39
2018-04-30T12:23:34.981Z,70.46
2018-04-30T12:26:03.169Z,68.44
2018-04-30T12:28:31.343Z,67.54
2018-04-30T12:30:59.586Z,68.00
2018-04-30T12:33:27.916Z,67.43
2018-04-30T12:35:56.149Z,66.93
2018-04-30T12:38:24.435Z,65.49
2018-04-30T12:40:52.647Z,65.33
2018-04-30T12:43:20.868Z,64.43
2018-04-30T12:45:49.204Z,65.42
2018-04-30T12:48:17.389Z,64.70
2018-04-30T12:50:45.644Z,64.77
2018-04-30T12:53:14.192Z,63.89
2018-04-30T12:55:43.105Z,64.02
2018-04-30T12:58:11.418Z,64.12
2018-04-30T13:00:39.547Z,63.03
2018-04-30T13:03:09.205Z,64.22
2018-04-30T13:05:38.517Z,63.15
2018-04-30T13:08:07.093Z,63.28
2018-04-30T13:10:36.432Z,66.96
2018-04-30T13:13:05.515Z,70.97
2018-04-30T13:15:34.674Z,70.60
2018-04-30T13:18:02.817Z,71.49
2018-04-30T13:20:30.993Z,73.41
2018-04-30T13:22:59.158Z,73.14
2018-04-30T13:25:27.311Z,72.11
2018-04-30T13:27:55.551Z,72.43
2018-04-30T13:30:23.739Z,74.32
2018-04-30T13:32:51.942Z,72.13
2018-04-30T13:35:20.134Z,71.58
2018-04-30T13:37:48.275Z,71.85
2018-04-30T13:40:16.643Z,73.29
2018-04-30T13:42:44.858Z,72.58
2018-04-30T13:45:13.211Z,72.51
2018-04-30T13:47:41.388Z,72.43
2018-04-30T13:50:09.547Z,73.01
2018-04-30T13:52:37.755Z,72.11
2018-04-30T13:55:05.911Z,72.77
2018-04-30T13:57:34.940Z,72.22
2018-04-30T14:00:03.788Z,71.24
2018-04-30T14:02:32.575Z,72.43
2018-04-30T14:05:00.802Z,71.78
2018-04-30T14:07:29.523Z,72.23
2018-04-30T14:09:57.689Z,70.91
2018-04-30T14:12:25.875Z,67.21
2018-04-30T14:14:54.890Z,68.50
2018-04-30T14:17:23.053Z,67.04
2018-04-30T14:19:51.198Z,66.12
2018-04-30T14:22:19.395Z,66.58
2018-04-30T14:24:47.571Z,63.92
2018-04-30T14:27:15.742Z,65.10
2018-04-30T14:29:43.899Z,63.70
2018-04-30T14:32:12.069Z,66.23
2018-04-30T14:34:40.249Z,63.21
2018-04-30T14:37:08.419Z,63.48
2018-04-30T14:39:36.879Z,61.88
2018-04-30T14:42:05.066Z,64.09
2018-04-30T14:44:33.446Z,63.33
2018-04-30T14:47:01.758Z,62.98
2018-04-30T14:49:29.900Z,62.93
2018-04-30T14:51:58.085Z,63.18
2018-04-30T14:54:26.293Z,62.95
2018-04-30T14:56:54.451Z,63.47
2018-04-30T14:59:22.923Z,61.07
2018-04-30T15:01:51.098Z,57.48
2018-04-30T15:04:19.284Z,58.30
2018-04-30T15:06:47.414Z,56.73
2018-04-30T15:09:15.607Z,56.24
2018-04-30T15:11:43.779Z,53.83
2018-04-30T15:14:11.939Z,55.59
2018-04-30T15:16:40.113Z,52.93
2018-04-30T15:19:08.291Z,54.01
2018-04-30T15:21:36.472Z,52.61
2018-04-30T15:24:04.696Z,51.68
2018-04-30T15:26:32.833Z,50.30
2018-04-30T15:29:01.006Z,49.30
2018-04-30T15:31:29.170Z,49.29
2018-04-30T15:33:57.356Z,51.63
2018-04-30T15:36:25.524Z,51.37
2018-04-30T15:38:53.676Z,51.21
2018-04-30T15:41:21.850Z,52.93
2018-04-30T15:43:50.017Z,52.26
2018-04-30T15:46:18.219Z,51.03
2018-04-30T15:48:46.390Z,50.27
2018-04-30T15:51:14.568Z,52.10
2018-04-30T15:53:42.905Z,52.36
2018-04-30T15:56:11.043Z,53.17
2018-04-30T15:58:39.246Z,52.43
2018-04-30T16:01:07.413Z,53.00
2018-04-30T16:03:35.543Z,52.90
2018-04-30T16:06:03.692Z,52.08
2018-04-30T16:08:31.880Z,52.28
2018-04-30T16:11:00.040Z,52.43
2018-04-30T16:13:28.219Z,51.98
2018-04-30T16:15:56.423Z,51.84
2018-04-30T16:18:24.579Z,50.40
2018-04-30T16:20:53.034Z,51.55
2018-04-30T16:23:21.207Z,50.10
2018-04-30T16:25:49.396Z,50.78
2018-04-30T16:28:17.590Z,51.09
2018-04-30T16:30:45.989Z,51.81
2018-04-30T16:33:14.128Z,52.24
2018-04-30T16:35:42.332Z,53.06
2018-04-30T16:38:10.484Z,53.08
2018-04-30T16:40:38.654Z,53.34
2018-04-30T16:43:06.827Z,53.42
2018-04-30T16:45:34.985Z,54.57
2018-04-30T16:48:03.133Z,53.42
2018-04-30T16:50:31.323Z,53.53
2018-04-30T16:52:59.527Z,52.39
2018-04-30T16:55:27.639Z,52.23
2018-04-30T16:57:55.781Z,52.70
2018-04-30T17:00:24.247Z,53.96
2018-04-30T17:02:52.436Z,53.37
2018-04-30T17:05:20.566Z,53.40
2018-04-30T17:07:48.739Z,53.78
2018-04-30T17:10:16.902Z,54.54
2018-04-30T17:12:45.073Z,53.69
2018-04-30T17:15:13.249Z,53.36
2018-04-30T17:17:41.535Z,54.22
2018-04-30T17:20:09.682Z,54.79
2018-04-30T17:22:37.855Z,54.52
2018-04-30T17:25:06.087Z,55.67
2018-04-30T17:27:34.255Z,55.84
2018-04-30T17:30:02.425Z,55.30
2018-04-30T17:32:30.593Z,54.50
2018-04-30T17:34:58.833Z,56.40
2018-04-30T17:37:27.028Z,58.55
2018-04-30T17:39:55.186Z,56.78
2018-04-30T17:42:23.361Z,57.61
2018-04-30T17:44:51.534Z,57.71
2018-04-30T17:47:19.717Z,59.56
2018-04-30T17:49:47.893Z,60.50
2018-04-30T17:52:16.100Z,61.29
2018-04-30T17:54:44.257Z,62.47
2018-04-30T17:57:12.447Z,63.61
2018-04-30T17:59:40.608Z,63.99
2018-04-30T18:02:08.782Z,64.09
2018-04-30T18:04:36.996Z,64.88
2018-04-30T18:07:05.194Z,65.04
2018-04-30T18:09:33.343Z,64.03
2018-04-30T18:12:01.506Z,65.12
2018-04-30T18:14:29.674Z,65.33
2018-04-30T18:16:57.822Z,64.76
2018-04-30T18:19:26.018Z,63.95
2018-04-30T18:21:54.220Z,63.12
2018-04-30T18:24:22.380Z,63.56
2018-04-30T18:26:50.592Z,62.01
2018-04-30T18:29:18.723Z,62.29
2018-04-30T18:31:46.889Z,61.40
2018-04-30T18:34:15.050Z,60.61
2018-04-30T18:36:43.187Z,61.78
2018-04-30T18:39:11.357Z,62.28
2018-04-30T18:41:39.530Z,61.42
2018-04-30T18:44:07.707Z,60.70
2018-04-30T18:46:35.900Z,61.38
2018-04-30T18:49:04.053Z,62.12
2018-04-30T18:51:32.245Z,62.31
2018-04-30T18:54:00.433Z,61.52
2018-04-30T18:56:28.594Z,62.62
2018-04-30T18:58:56.781Z,64.49
2018-04-30T19:01:24.928Z,64.29
2018-04-30T19:03:53.102Z,65.94
2018-04-30T19:06:21.252Z,65.92
2018-04-30T19:08:49.459Z,67.62
2018-04-30T19:11:17.641Z,67.97
2018-04-30T19:13:45.790Z,67.77
2018-04-30T19:16:13.975Z,67.81
2018-04-30T19:18:42.161Z,68.25
2018-04-30T19:21:10.381Z,68.07
2018-04-30T19:23:38.480Z,66.14
2018-04-30T19:26:06.672Z,65.18
2018-04-30T19:28:34.803Z,66.11
2018-04-30T19:31:02.983Z,65.88
2018-04-30T19:33:31.151Z,65.86
2018-04-30T19:35:59.306Z,65.79
2018-04-30T19:38:27.464Z,65.77
2018-04-30T19:40:55.802Z,66.87
2018-04-30T19:43:24.004Z,68.52
2018-04-30T19:45:52.181Z,68.85
2018-04-30T19:48:20.662Z,69.12
2018-04-30T19:50:48.817Z,70.84
2018-04-30T19:53:16.958Z,71.07
2018-04-30T19:55:45.156Z,69.71
2018-04-30T19:58:13.319Z,70.11
2018-04-30T20:00:41.483Z,70.00
2018-04-30T20:03:10.018Z,70.08
2018-04-30T20:05:38.208Z,69.17
2018-04-30T20:08:06.349Z,70.33
2018-04-30T20:10:34.526Z,70.19
2018-04-30T20:13:02.670Z,70.69
2018-04-30T20:15:30.963Z,72.33
2018-04-30T20:17:59.150Z,71.55
2018-04-30T20:20:27.337Z,72.14
2018-04-30T20:22:55.485Z,72.12
2018-04-30T20:25:23.643Z,72.15
2018-04-30T20:27:51.830Z,71.94
2018-04-30T20:30:20.018Z,72.54
2018-04-30T20:32:48.999Z,71.81
2018-04-30T20:35:17.172Z,74.58
2018-04-30T20:37:45.363Z,73.29
2018-04-30T20:40:13.631Z,73.26
2018-04-30T20:42:41.781Z,72.69
2018-04-30T20:45:09.984Z,73.02
2018-04-30T20:47:38.168Z,72.52
2018-04-30T20:50:06.303Z,73.07
2018-04-30T20:52:34.492Z,72.32
2018-04-30T20:55:02.677Z,71.82
2018-04-30T20:57:30.836Z,71.95
2018-04-30T20:59:59.014Z,72.76
2018-04-30T21:02:27.173Z,72.41
2018-04-30T21:04:55.346Z,72.32
2018-04-30T21:07:23.497Z,72.37
2018-04-30T21:09:52.459Z,72.46
2018-04-30T21:12:20.625Z,71.88
2018-04-30T21:14:48.769Z,73.02
2018-04-30T21:17:17.008Z,73.75
2018-04-30T21:19:45.138Z,74.15
2018-04-30T21:22:13.299Z,72.70
2018-04-30T21:24:41.502Z,72.54
2018-04-30T21:27:09.657Z,74.41
2018-04-30T21:29:38.199Z,74.75
2018-04-30T21:32:06.362Z,74.55
2018-04-30T21:34:34.634Z,74.62
2018-04-30T21:37:02.735Z,75.59
2018-04-30T21:39:30.884Z,75.20
2018-04-30T21:41:59.071Z,76.46
2018-04-30T21:44:27.263Z,76.19
2018-04-30T21:46:55.445Z,77.03
2018-04-30T21:49:23.590Z,77.88
2018-04-30T21:51:51.763Z,78.33
2018-04-30T21:54:19.943Z,78.38
2018-04-30T21:56:48.247Z,77.44
2018-04-30T21:59:16.428Z,77.28
2018-04-30T22:01:44.591Z,78.23
2018-04-30T22:04:12.764Z,77.87
2018-04-30T22:06:40.952Z,78.77
2018-04-30T22:09:09.111Z,80.44
2018-04-30T22:11:37.299Z,80.34
2018-04-30T22:14:05.486Z,81.94
2018-04-30T22:16:33.630Z,81.43
2018-04-30T22:19:01.816Z,81.43
2018-04-30T22:21:29.976Z,81.64
2018-04-30T22:23:58.137Z,81.07
2018-04-30T22:26:26.344Z,82.05
2018-04-30T22:28:54.493Z,81.41
2018-04-30T22:31:22.651Z,81.89
2018-04-30T22:33:50.845Z,81.92
2018-04-30T22:36:19.006Z,81.27
2018-04-30T22:38:47.215Z,82.02
2018-04-30T22:41:15.413Z,81.84
2018-04-30T22:43:43.571Z,83.85
2018-04-30T22:46:11.790Z,83.29
2018-04-30T22:48:39.956Z,83.70
2018-04-30T22:51:08.110Z,82.72
2018-04-30T22:53:36.267Z,82.29
2018-04-30T22:56:04.454Z,82.50
2018-04-30T22:58:32.632Z,82.45
2018-04-30T23:01:00.810Z,82.24
2018-04-30T23:03:28.970Z,82.11
2018-04-30T23:05:57.130Z,82.74
2018-04-30T23:08:25.297Z,82.21
2018-04-30T23:10:53.464Z,82.61
2018-04-30T23:13:21.651Z,81.55
2018-04-30T23:15:49.810Z,81.49
2018-04-30T23:18:17.963Z,81.42
2018-04-30T23:20:46.137Z,81.60
2018-04-30T23:23:14.637Z,82.11
2018-04-30T23:25:42.745Z,82.29
2018-04-30T23:28:10.921Z,81.67
2018-04-30T23:30:39.092Z,81.66
2018-04-30T23:33:07.236Z,82.44
2018-04-30T23:35:35.410Z,81.53
2018-04-30T23:38:03.555Z,81.56
2018-04-30T23:40:31.725Z,82.62
2018-04-30T23:42:59.906Z,81.91
2018-04-30T23:45:28.071Z,81.56
2018-04-30T23:47:56.225Z,82.47
2018-04-30T23:50:24.396Z,81.96
2018-04-30T23:52:52.568Z,82.32
2018-04-30T23:55:20.696Z,82.20
2018-04-30T23:57:48.865Z,82.12
